Weather at Olimboi Airport

Public forecast

Using degrees Celsius for public forecast. Weather courtesy of forecast.io.

Closest aviation weather report (METAR) to Olimboi Airport

Closest report is Chios Island National Airport, 11.5 nm (21.2 km) NE. Retrieved 2021/04/17 10:50 UTC (25 minutes ago):

LGHI 171050Z 13003KT CAVOK 21/11 Q1010

Closest aviation forecast (TAF) to Olimboi Airport

Forecast is more than 12 hours old.

Closest forecast is Chios Island National Airport, 11.5 nm (21.2 km) NE. Retrieved 2012/09/21 03:06 UTC (9 years ago):

TAF TAF LGHI 210200Z 2103/2115 VRB05KT 9999 SCT020 PROB30 TEMPO 2103/2106 7000 RA SCT018 BKN030 BECMG 2103/2105 30018KT